Portada
METAR-TAF:

METAR-TAF

Aeropuertos :

Base Aérea de Getafe

Madrid-Getafe, España

latitud: 40-18N, longitud: 003-43W, altitud: 620 m

Observación

El informe se hizo hace 9 horas y 16 minutos, a las 18:00 UTC
Viento 4 kt del norte-noreste
Temperatura 19°C
Humedad 73%
Presión 1021 hPa
Visibilidad 10 km o más
sin nubes por debajo de 1500 m y sin presencia de cumulonimbus.

METAR: LEGT 211800Z 03004KT CAVOK 19/14 Q1021

Hora: 05:16 (03:16 UTC)

Pronóstico

El informe se hizo hace 10 horas y 16 minutos, a las 17:00 UTC
Pronóstico válido del 21 a las 18 UTC al 22 a las 03 UTC
Viento 3 kt con dirección variable
Visibilidad 10 km o más
Escasas nubes a una altura de 4000 ft

TAF: LEGT 211700Z 2118/2203 VRB03KT 9999 FEW040

Observaciones y pronósticos meteorológicos de más de 4000 aeropuertos (mensajes METAR y TAF).

Los puntos amarillos y rojos representan las estaciones disponibles.

Ponga el ratón en el punto deseado para ver el nombre de la estación.

Haga clic para ver las observaciones y los pronósticos meteorológicos.

Para cambiar el mapa : haga clic en los botones verdes con una cruz de color negro para hacer un zoom, en el botón verde con un guión para alejar o en las flechas verdes para mapas adyacentes.


METAR-TAF: